sensor_id;sensor_type;location;lat;lon;timestamp;temperature;humidity
16273;DHT22;8244;50.044;9.006;2023-02-20T00:02:08;8.70;99.90
16273;DHT22;8244;50.044;9.006;2023-02-20T00:07:09;8.70;99.90
16273;DHT22;8244;50.044;9.006;2023-02-20T00:12:12;8.60;99.90
16273;DHT22;8244;50.044;9.006;2023-02-20T00:17:14;8.50;99.90
16273;DHT22;8244;50.044;9.006;2023-02-20T00:22:16;8.40;99.90
16273;DHT22;8244;50.044;9.006;2023-02-20T00:27:19;8.30;99.90
16273;DHT22;8244;50.044;9.006;2023-02-20T00:32:21;8.20;99.90
16273;DHT22;8244;50.044;9.006;2023-02-20T00:37:22;8.10;99.90
16273;DHT22;8244;50.044;9.006;2023-02-20T00:42:25;7.90;99.90
16273;DHT22;8244;50.044;9.006;2023-02-20T00:47:27;7.80;99.90
16273;DHT22;8244;50.044;9.006;2023-02-20T00:52:28;7.70;99.90
16273;DHT22;8244;50.044;9.006;2023-02-20T00:57:31;7.50;99.90
16273;DHT22;8244;50.044;9.006;2023-02-20T01:02:33;7.40;99.90
16273;DHT22;8244;50.044;9.006;2023-02-20T01:07:35;7.20;99.90
16273;DHT22;8244;50.044;9.006;2023-02-20T01:12:38;7.00;99.90
16273;DHT22;8244;50.044;9.006;2023-02-20T01:17:40;6.90;99.90
16273;DHT22;8244;50.044;9.006;2023-02-20T01:22:41;6.70;99.90
16273;DHT22;8244;50.044;9.006;2023-02-20T01:27:44;6.60;99.90
16273;DHT22;8244;50.044;9.006;2023-02-20T01:32:46;6.50;99.90
16273;DHT22;8244;50.044;9.006;2023-02-20T01:37:47;6.30;99.90
16273;DHT22;8244;50.044;9.006;2023-02-20T01:42:50;6.20;99.90
16273;DHT22;8244;50.044;9.006;2023-02-20T01:47:53;6.00;99.90
16273;DHT22;8244;50.044;9.006;2023-02-20T01:52:59;5.90;99.90
16273;DHT22;8244;50.044;9.006;2023-02-20T01:58:05;5.80;99.90
16273;DHT22;8244;50.044;9.006;2023-02-20T02:03:11;5.70;99.90
16273;DHT22;8244;50.044;9.006;2023-02-20T02:08:15;5.70;99.90
16273;DHT22;8244;50.044;9.006;2023-02-20T02:13:20;5.70;99.90
16273;DHT22;8244;50.044;9.006;2023-02-20T02:35:29;5.60;99.90
16273;DHT22;8244;50.044;9.006;2023-02-20T02:40:45;5.50;99.90
16273;DHT22;8244;50.044;9.006;2023-02-20T02:45:52;5.50;99.90
16273;DHT22;8244;50.044;9.006;2023-02-20T02:50:57;5.40;99.90
16273;DHT22;8244;50.044;9.006;2023-02-20T02:56:01;5.30;99.90
16273;DHT22;8244;50.044;9.006;2023-02-20T03:01:20;5.30;99.90
16273;DHT22;8244;50.044;9.006;2023-02-20T03:06:26;5.20;99.90
16273;DHT22;8244;50.044;9.006;2023-02-20T03:11:32;5.10;99.90
16273;DHT22;8244;50.044;9.006;2023-02-20T03:16:40;5.10;99.90
16273;DHT22;8244;50.044;9.006;2023-02-20T03:21:47;5.00;99.90
16273;DHT22;8244;50.044;9.006;2023-02-20T03:26:52;5.00;99.90
16273;DHT22;8244;50.044;9.006;2023-02-20T03:31:58;4.90;99.90
16273;DHT22;8244;50.044;9.006;2023-02-20T03:37:19;4.80;99.90
16273;DHT22;8244;50.044;9.006;2023-02-20T03:42:43;4.80;99.90
16273;DHT22;8244;50.044;9.006;2023-02-20T03:48:09;4.70;99.90
16273;DHT22;8244;50.044;9.006;2023-02-20T03:53:12;4.60;99.90
16273;DHT22;8244;50.044;9.006;2023-02-20T03:58:18;4.50;99.90
16273;DHT22;8244;50.044;9.006;2023-02-20T04:03:26;4.50;99.90
16273;DHT22;8244;50.044;9.006;2023-02-20T04:08:32;4.30;99.90
16273;DHT22;8244;50.044;9.006;2023-02-20T04:13:38;4.20;99.90
16273;DHT22;8244;50.044;9.006;2023-02-20T04:18:41;4.20;99.90
16273;DHT22;8244;50.044;9.006;2023-02-20T04:23:45;4.10;99.90
16273;DHT22;8244;50.044;9.006;2023-02-20T04:28:49;4.00;99.90
16273;DHT22;8244;50.044;9.006;2023-02-20T04:33:51;4.00;99.90
16273;DHT22;8244;50.044;9.006;2023-02-20T04:38:53;4.10;99.90
16273;DHT22;8244;50.044;9.006;2023-02-20T04:43:56;4.00;99.90
16273;DHT22;8244;50.044;9.006;2023-02-20T04:49:11;4.00;99.90
16273;DHT22;8244;50.044;9.006;2023-02-20T04:54:13;3.90;99.90
16273;DHT22;8244;50.044;9.006;2023-02-20T04:59:16;3.80;99.90
16273;DHT22;8244;50.044;9.006;2023-02-20T05:04:19;3.70;99.90
16273;DHT22;8244;50.044;9.006;2023-02-20T05:09:21;3.70;99.90
16273;DHT22;8244;50.044;9.006;2023-02-20T05:14:24;3.70;99.90
16273;DHT22;8244;50.044;9.006;2023-02-20T05:19:26;3.50;99.90
16273;DHT22;8244;50.044;9.006;2023-02-20T05:24:28;3.40;99.90
16273;DHT22;8244;50.044;9.006;2023-02-20T05:29:31;3.30;99.90
16273;DHT22;8244;50.044;9.006;2023-02-20T05:34:32;3.30;99.90
16273;DHT22;8244;50.044;9.006;2023-02-20T05:39:34;3.30;99.90
16273;DHT22;8244;50.044;9.006;2023-02-20T05:44:37;3.20;99.90
16273;DHT22;8244;50.044;9.006;2023-02-20T05:49:38;3.20;99.90
16273;DHT22;8244;50.044;9.006;2023-02-20T05:54:41;3.10;99.90
16273;DHT22;8244;50.044;9.006;2023-02-20T05:59:44;3.10;99.90
16273;DHT22;8244;50.044;9.006;2023-02-20T06:04:45;3.00;99.90
16273;DHT22;8244;50.044;9.006;2023-02-20T06:09:47;3.00;99.90
16273;DHT22;8244;50.044;9.006;2023-02-20T06:14:50;3.00;99.90
16273;DHT22;8244;50.044;9.006;2023-02-20T06:19:52;3.00;99.90
16273;DHT22;8244;50.044;9.006;2023-02-20T06:24:53;3.00;99.90
16273;DHT22;8244;50.044;9.006;2023-02-20T06:29:56;3.10;99.90
16273;DHT22;8244;50.044;9.006;2023-02-20T06:34:58;3.10;99.90
16273;DHT22;8244;50.044;9.006;2023-02-20T06:40:00;3.10;99.90
16273;DHT22;8244;50.044;9.006;2023-02-20T06:45:03;3.20;99.90
16273;DHT22;8244;50.044;9.006;2023-02-20T06:50:05;3.20;99.90
16273;DHT22;8244;50.044;9.006;2023-02-20T06:55:07;3.20;99.90
16273;DHT22;8244;50.044;9.006;2023-02-20T07:00:12;3.30;99.90
16273;DHT22;8244;50.044;9.006;2023-02-20T07:05:13;3.40;99.90
16273;DHT22;8244;50.044;9.006;2023-02-20T07:10:15;3.40;99.90
16273;DHT22;8244;50.044;9.006;2023-02-20T07:15:18;3.50;99.90
16273;DHT22;8244;50.044;9.006;2023-02-20T07:20:20;3.60;99.90
16273;DHT22;8244;50.044;9.006;2023-02-20T07:25:22;3.80;99.90
16273;DHT22;8244;50.044;9.006;2023-02-20T07:30:25;3.90;99.90
16273;DHT22;8244;50.044;9.006;2023-02-20T07:35:27;4.00;99.90
16273;DHT22;8244;50.044;9.006;2023-02-20T07:40:28;4.20;99.90
16273;DHT22;8244;50.044;9.006;2023-02-20T07:45:31;4.30;99.90
16273;DHT22;8244;50.044;9.006;2023-02-20T07:50:33;4.50;99.90
16273;DHT22;8244;50.044;9.006;2023-02-20T07:55:35;4.60;99.90
16273;DHT22;8244;50.044;9.006;2023-02-20T08:00:38;4.90;99.90
16273;DHT22;8244;50.044;9.006;2023-02-20T08:05:40;5.10;99.90
16273;DHT22;8244;50.044;9.006;2023-02-20T08:10:41;5.40;99.90
16273;DHT22;8244;50.044;9.006;2023-02-20T08:15:44;5.80;99.90
16273;DHT22;8244;50.044;9.006;2023-02-20T08:20:47;6.20;99.90
16273;DHT22;8244;50.044;9.006;2023-02-20T08:25:49;6.90;99.90
16273;DHT22;8244;50.044;9.006;2023-02-20T08:30:52;7.50;99.90
16273;DHT22;8244;50.044;9.006;2023-02-20T08:35:54;7.60;99.90
16273;DHT22;8244;50.044;9.006;2023-02-20T08:40:56;7.60;99.90
16273;DHT22;8244;50.044;9.006;2023-02-20T08:45:59;7.70;99.90
16273;DHT22;8244;50.044;9.006;2023-02-20T08:51:01;8.10;99.90
16273;DHT22;8244;50.044;9.006;2023-02-20T08:56:03;8.40;99.90
16273;DHT22;8244;50.044;9.006;2023-02-20T09:01:07;8.60;99.90
16273;DHT22;8244;50.044;9.006;2023-02-20T09:06:08;8.80;99.90
16273;DHT22;8244;50.044;9.006;2023-02-20T09:11:10;8.90;99.90
16273;DHT22;8244;50.044;9.006;2023-02-20T09:16:15;9.00;99.90
16273;DHT22;8244;50.044;9.006;2023-02-20T09:21:18;9.10;99.90
16273;DHT22;8244;50.044;9.006;2023-02-20T09:26:20;9.20;99.90
16273;DHT22;8244;50.044;9.006;2023-02-20T09:31:22;9.50;99.90
16273;DHT22;8244;50.044;9.006;2023-02-20T09:36:24;9.80;99.90
16273;DHT22;8244;50.044;9.006;2023-02-20T09:41:37;10.00;99.90
16273;DHT22;8244;50.044;9.006;2023-02-20T09:46:46;10.20;99.90
16273;DHT22;8244;50.044;9.006;2023-02-20T09:51:51;10.40;99.90
16273;DHT22;8244;50.044;9.006;2023-02-20T09:56:57;10.50;99.90
16273;DHT22;8244;50.044;9.006;2023-02-20T10:02:09;10.50;99.90
16273;DHT22;8244;50.044;9.006;2023-02-20T10:07:19;10.60;99.90
16273;DHT22;8244;50.044;9.006;2023-02-20T10:12:28;10.80;99.90
16273;DHT22;8244;50.044;9.006;2023-02-20T10:17:39;10.80;99.90
16273;DHT22;8244;50.044;9.006;2023-02-20T10:22:49;11.10;99.90
16273;DHT22;8244;50.044;9.006;2023-02-20T10:27:56;11.30;99.90
16273;DHT22;8244;50.044;9.006;2023-02-20T10:33:14;11.60;99.90
16273;DHT22;8244;50.044;9.006;2023-02-20T10:38:26;11.90;99.90
16273;DHT22;8244;50.044;9.006;2023-02-20T10:43:33;12.30;99.90
16273;DHT22;8244;50.044;9.006;2023-02-20T10:48:37;12.40;99.90
16273;DHT22;8244;50.044;9.006;2023-02-20T10:53:46;12.80;99.90
16273;DHT22;8244;50.044;9.006;2023-02-20T10:58:56;13.10;99.90
16273;DHT22;8244;50.044;9.006;2023-02-20T11:04:04;13.10;99.90
16273;DHT22;8244;50.044;9.006;2023-02-20T11:09:06;13.20;99.90
16273;DHT22;8244;50.044;9.006;2023-02-20T11:14:11;13.40;99.90
16273;DHT22;8244;50.044;9.006;2023-02-20T11:19:20;13.80;99.90
16273;DHT22;8244;50.044;9.006;2023-02-20T11:24:30;14.10;99.90
16273;DHT22;8244;50.044;9.006;2023-02-20T11:29:40;14.40;99.90
16273;DHT22;8244;50.044;9.006;2023-02-20T11:34:43;14.50;99.90
16273;DHT22;8244;50.044;9.006;2023-02-20T11:39:46;14.50;99.90
16273;DHT22;8244;50.044;9.006;2023-02-20T11:45:11;14.60;99.90
16273;DHT22;8244;50.044;9.006;2023-02-20T11:50:16;14.60;99.90
16273;DHT22;8244;50.044;9.006;2023-02-20T11:55:22;14.40;99.90
16273;DHT22;8244;50.044;9.006;2023-02-20T12:00:25;14.90;99.90
16273;DHT22;8244;50.044;9.006;2023-02-20T12:05:39;15.10;99.90
16273;DHT22;8244;50.044;9.006;2023-02-20T12:10:42;14.90;99.90
16273;DHT22;8244;50.044;9.006;2023-02-20T12:15:50;14.90;99.90
16273;DHT22;8244;50.044;9.006;2023-02-20T12:21:13;15.20;99.90
16273;DHT22;8244;50.044;9.006;2023-02-20T12:26:25;15.60;99.90
16273;DHT22;8244;50.044;9.006;2023-02-20T12:31:38;15.70;99.90
16273;DHT22;8244;50.044;9.006;2023-02-20T12:36:48;15.80;99.90
16273;DHT22;8244;50.044;9.006;2023-02-20T12:42:02;16.00;99.90
16273;DHT22;8244;50.044;9.006;2023-02-20T12:47:15;16.20;99.10
16273;DHT22;8244;50.044;9.006;2023-02-20T12:52:34;16.10;99.70
16273;DHT22;8244;50.044;9.006;2023-02-20T12:57:42;15.90;97.60
16273;DHT22;8244;50.044;9.006;2023-02-20T13:02:48;15.50;98.00
16273;DHT22;8244;50.044;9.006;2023-02-20T13:07:54;15.40;97.80
16273;DHT22;8244;50.044;9.006;2023-02-20T13:12:56;15.40;98.00
16273;DHT22;8244;50.044;9.006;2023-02-20T13:18:03;15.50;97.00
16273;DHT22;8244;50.044;9.006;2023-02-20T13:23:34;15.30;96.60
16273;DHT22;8244;50.044;9.006;2023-02-20T13:28:39;15.00;95.50
16273;DHT22;8244;50.044;9.006;2023-02-20T13:33:47;14.80;95.30
16273;DHT22;8244;50.044;9.006;2023-02-20T13:44:40;14.60;95.00
16273;DHT22;8244;50.044;9.006;2023-02-20T13:49:55;14.60;94.90
16273;DHT22;8244;50.044;9.006;2023-02-20T13:54:58;14.50;94.40
16273;DHT22;8244;50.044;9.006;2023-02-20T14:00:21;14.50;94.60
16273;DHT22;8244;50.044;9.006;2023-02-20T14:05:26;14.40;93.90
16273;DHT22;8244;50.044;9.006;2023-02-20T14:10:32;14.30;94.40
16273;DHT22;8244;50.044;9.006;2023-02-20T14:15:45;14.30;94.90
16273;DHT22;8244;50.044;9.006;2023-02-20T14:20:50;14.20;94.20
16273;DHT22;8244;50.044;9.006;2023-02-20T14:25:57;14.10;94.10
16273;DHT22;8244;50.044;9.006;2023-02-20T14:31:05;13.90;94.30
16273;DHT22;8244;50.044;9.006;2023-02-20T14:36:34;13.80;94.90
16273;DHT22;8244;50.044;9.006;2023-02-20T14:41:50;13.70;95.40
16273;DHT22;8244;50.044;9.006;2023-02-20T14:47:00;13.60;96.00
16273;DHT22;8244;50.044;9.006;2023-02-20T14:52:13;13.60;95.80
16273;DHT22;8244;50.044;9.006;2023-02-20T14:57:15;13.50;95.60
16273;DHT22;8244;50.044;9.006;2023-02-20T15:02:21;13.50;96.40
16273;DHT22;8244;50.044;9.006;2023-02-20T15:07:25;13.50;96.30
16273;DHT22;8244;50.044;9.006;2023-02-20T15:12:32;13.40;96.70
16273;DHT22;8244;50.044;9.006;2023-02-20T15:17:37;13.40;97.30
16273;DHT22;8244;50.044;9.006;2023-02-20T15:22:39;13.40;97.30
16273;DHT22;8244;50.044;9.006;2023-02-20T15:28:02;13.40;97.10
16273;DHT22;8244;50.044;9.006;2023-02-20T15:33:08;13.30;97.60
16273;DHT22;8244;50.044;9.006;2023-02-20T15:38:12;13.30;97.90
16273;DHT22;8244;50.044;9.006;2023-02-20T15:43:14;13.30;97.60
16273;DHT22;8244;50.044;9.006;2023-02-20T15:48:18;13.30;97.80
16273;DHT22;8244;50.044;9.006;2023-02-20T15:53:22;13.20;98.20
16273;DHT22;8244;50.044;9.006;2023-02-20T15:58:27;13.20;98.40
16273;DHT22;8244;50.044;9.006;2023-02-20T16:03:31;13.10;97.90
16273;DHT22;8244;50.044;9.006;2023-02-20T16:08:33;13.10;98.20
16273;DHT22;8244;50.044;9.006;2023-02-20T16:13:36;12.90;98.30
16273;DHT22;8244;50.044;9.006;2023-02-20T16:18:40;12.90;98.40
16273;DHT22;8244;50.044;9.006;2023-02-20T16:23:42;12.80;98.30
16273;DHT22;8244;50.044;9.006;2023-02-20T16:28:48;12.80;98.50
16273;DHT22;8244;50.044;9.006;2023-02-20T16:33:53;12.70;98.60
16273;DHT22;8244;50.044;9.006;2023-02-20T16:38:55;12.50;98.70
16273;DHT22;8244;50.044;9.006;2023-02-20T16:43:56;12.50;98.70
16273;DHT22;8244;50.044;9.006;2023-02-20T16:49:00;12.30;98.80
16273;DHT22;8244;50.044;9.006;2023-02-20T16:54:01;12.20;99.10
16273;DHT22;8244;50.044;9.006;2023-02-20T16:59:05;12.10;99.40
16273;DHT22;8244;50.044;9.006;2023-02-20T17:04:11;12.00;99.80
16273;DHT22;8244;50.044;9.006;2023-02-20T17:09:14;11.90;99.90
16273;DHT22;8244;50.044;9.006;2023-02-20T17:14:15;11.80;99.90
16273;DHT22;8244;50.044;9.006;2023-02-20T17:19:18;11.60;99.90
16273;DHT22;8244;50.044;9.006;2023-02-20T17:24:20;11.60;99.90
16273;DHT22;8244;50.044;9.006;2023-02-20T17:29:22;11.50;99.90
16273;DHT22;8244;50.044;9.006;2023-02-20T17:34:25;11.30;99.90
16273;DHT22;8244;50.044;9.006;2023-02-20T17:39:26;11.20;99.90
16273;DHT22;8244;50.044;9.006;2023-02-20T17:44:29;11.20;99.90
16273;DHT22;8244;50.044;9.006;2023-02-20T17:49:32;11.10;99.90
16273;DHT22;8244;50.044;9.006;2023-02-20T17:54:34;11.00;99.90
16273;DHT22;8244;50.044;9.006;2023-02-20T17:59:37;10.90;99.90
16273;DHT22;8244;50.044;9.006;2023-02-20T18:04:40;10.80;99.90
16273;DHT22;8244;50.044;9.006;2023-02-20T18:09:42;10.70;99.90
16273;DHT22;8244;50.044;9.006;2023-02-20T18:14:43;10.50;99.90
16273;DHT22;8244;50.044;9.006;2023-02-20T18:19:47;10.40;99.90
16273;DHT22;8244;50.044;9.006;2023-02-20T18:24:49;10.40;99.90
16273;DHT22;8244;50.044;9.006;2023-02-20T18:29:51;10.30;99.90
16273;DHT22;8244;50.044;9.006;2023-02-20T18:34:54;10.10;99.90
16273;DHT22;8244;50.044;9.006;2023-02-20T18:39:56;10.00;99.90
16273;DHT22;8244;50.044;9.006;2023-02-20T18:44:57;9.80;99.90
16273;DHT22;8244;50.044;9.006;2023-02-20T18:50:00;9.70;99.90
16273;DHT22;8244;50.044;9.006;2023-02-20T18:55:02;9.80;99.90
16273;DHT22;8244;50.044;9.006;2023-02-20T19:00:05;9.70;99.90
16273;DHT22;8244;50.044;9.006;2023-02-20T19:05:08;9.70;99.90
16273;DHT22;8244;50.044;9.006;2023-02-20T19:10:11;9.60;99.90
16273;DHT22;8244;50.044;9.006;2023-02-20T19:15:13;9.60;99.90
16273;DHT22;8244;50.044;9.006;2023-02-20T19:20:18;9.60;99.90
16273;DHT22;8244;50.044;9.006;2023-02-20T19:25:20;9.50;99.90
16273;DHT22;8244;50.044;9.006;2023-02-20T19:30:22;9.50;99.90
16273;DHT22;8244;50.044;9.006;2023-02-20T19:35:25;9.50;99.90
16273;DHT22;8244;50.044;9.006;2023-02-20T19:40:27;9.40;99.90
16273;DHT22;8244;50.044;9.006;2023-02-20T19:45:29;9.30;99.90
16273;DHT22;8244;50.044;9.006;2023-02-20T19:50:32;9.20;99.90
16273;DHT22;8244;50.044;9.006;2023-02-20T19:55:35;9.10;99.90
16273;DHT22;8244;50.044;9.006;2023-02-20T20:00:36;9.00;99.90
16273;DHT22;8244;50.044;9.006;2023-02-20T20:05:39;8.80;99.90
16273;DHT22;8244;50.044;9.006;2023-02-20T20:10:41;8.70;99.90
16273;DHT22;8244;50.044;9.006;2023-02-20T20:15:42;8.50;99.90
16273;DHT22;8244;50.044;9.006;2023-02-20T20:20:47;8.30;99.90
16273;DHT22;8244;50.044;9.006;2023-02-20T20:25:49;8.10;99.90
16273;DHT22;8244;50.044;9.006;2023-02-20T20:30:50;8.00;99.90
16273;DHT22;8244;50.044;9.006;2023-02-20T20:35:53;8.00;99.90
16273;DHT22;8244;50.044;9.006;2023-02-20T20:40:57;8.00;99.90
16273;DHT22;8244;50.044;9.006;2023-02-20T20:45:58;8.00;99.90
16273;DHT22;8244;50.044;9.006;2023-02-20T20:51:02;8.20;99.90
16273;DHT22;8244;50.044;9.006;2023-02-20T20:56:04;8.20;99.90
16273;DHT22;8244;50.044;9.006;2023-02-20T21:01:05;8.30;99.90
16273;DHT22;8244;50.044;9.006;2023-02-20T21:06:08;8.40;99.90
16273;DHT22;8244;50.044;9.006;2023-02-20T21:11:10;8.40;99.90
16273;DHT22;8244;50.044;9.006;2023-02-20T21:16:13;8.40;99.90
16273;DHT22;8244;50.044;9.006;2023-02-20T21:21:16;8.40;99.90
16273;DHT22;8244;50.044;9.006;2023-02-20T21:26:18;8.30;99.90
16273;DHT22;8244;50.044;9.006;2023-02-20T21:31:19;8.30;99.90
16273;DHT22;8244;50.044;9.006;2023-02-20T21:36:23;8.30;99.90
16273;DHT22;8244;50.044;9.006;2023-02-20T21:41:25;8.10;99.90
16273;DHT22;8244;50.044;9.006;2023-02-20T21:46:44;8.00;99.90
16273;DHT22;8244;50.044;9.006;2023-02-20T21:51:47;8.00;99.90
16273;DHT22;8244;50.044;9.006;2023-02-20T21:56:49;8.00;99.90
16273;DHT22;8244;50.044;9.006;2023-02-20T22:01:51;8.00;99.90
16273;DHT22;8244;50.044;9.006;2023-02-20T22:06:53;8.00;99.90
16273;DHT22;8244;50.044;9.006;2023-02-20T22:12:12;8.00;99.90
16273;DHT22;8244;50.044;9.006;2023-02-20T22:17:34;8.00;99.90
16273;DHT22;8244;50.044;9.006;2023-02-20T22:22:54;8.00;99.90
16273;DHT22;8244;50.044;9.006;2023-02-20T22:28:14;8.00;99.90
16273;DHT22;8244;50.044;9.006;2023-02-20T22:33:33;7.90;99.90
16273;DHT22;8244;50.044;9.006;2023-02-20T22:38:54;7.90;99.90
16273;DHT22;8244;50.044;9.006;2023-02-20T22:44:13;7.70;99.90
16273;DHT22;8244;50.044;9.006;2023-02-20T22:49:33;7.70;99.90
16273;DHT22;8244;50.044;9.006;2023-02-20T22:54:53;7.60;99.90
16273;DHT22;8244;50.044;9.006;2023-02-20T23:00:13;7.40;99.90
16273;DHT22;8244;50.044;9.006;2023-02-20T23:05:33;7.20;99.90
16273;DHT22;8244;50.044;9.006;2023-02-20T23:10:53;6.90;99.90
16273;DHT22;8244;50.044;9.006;2023-02-20T23:16:17;6.70;99.90
16273;DHT22;8244;50.044;9.006;2023-02-20T23:21:36;6.50;99.90
16273;DHT22;8244;50.044;9.006;2023-02-20T23:26:56;6.30;99.90
16273;DHT22;8244;50.044;9.006;2023-02-20T23:32:16;6.10;99.90
16273;DHT22;8244;50.044;9.006;2023-02-20T23:37:35;6.00;99.90
16273;DHT22;8244;50.044;9.006;2023-02-20T23:42:56;5.90;99.90
16273;DHT22;8244;50.044;9.006;2023-02-20T23:48:15;5.80;99.90
16273;DHT22;8244;50.044;9.006;2023-02-20T23:53:35;5.70;99.90
16273;DHT22;8244;50.044;9.006;2023-02-20T23:58:56;5.50;99.90
